Time;durP1;ratioP1;P1;durP2;ratioP2;P2;SDS_P1;SDS_P2;PMS_P1;PMS_P2;Temp;Humidity;BMP_temperature;BMP_pressure;BME280_temperature;BME280_humidity;BME280_pressure;Samples;Min_cycle;Max_cycle;Signal;HPM_P1;HPM_P2
2021/06/13 00:02:15;;;;;;;15.47;4.00;;;;;;;13.70;90.38;101429.78;5193100;28;20083;-76
2021/06/13 00:04:46;;;;;;;13.27;4.03;;;;;;;13.81;90.21;101414.50;5203801;28;20280;-77
2021/06/13 00:07:16;;;;;;;15.55;3.78;;;;;;;13.67;90.68;101433.41;5207307;28;20029;-77
2021/06/13 00:09:47;;;;;;;14.55;3.90;;;;;;;13.60;90.48;101429.25;5217175;28;20041;-78
2021/06/13 00:12:17;;;;;;;15.02;3.63;;;;;;;13.62;90.54;101432.72;5217506;28;20049;-78
2021/06/13 00:14:47;;;;;;;18.52;4.60;;;;;;;13.58;90.32;101432.84;5212970;28;20033;-77
2021/06/13 00:17:18;;;;;;;15.90;4.60;;;;;;;13.57;90.26;101433.78;5205846;28;20033;-79
2021/06/13 00:19:48;;;;;;;19.20;5.18;;;;;;;13.42;91.04;101437.75;5222119;28;20025;-77
2021/06/13 00:22:18;;;;;;;14.27;4.50;;;;;;;13.60;90.18;101441.53;5221891;28;20037;-76
2021/06/13 00:24:49;;;;;;;16.10;4.60;;;;;;;13.52;90.21;101438.28;5213846;28;20124;-78
2021/06/13 00:27:19;;;;;;;15.90;4.82;;;;;;;13.51;90.65;101444.47;5210798;28;20033;-76
2021/06/13 00:29:49;;;;;;;15.85;4.22;;;;;;;13.41;90.61;101448.31;5216365;28;20079;-77
2021/06/13 00:32:19;;;;;;;21.17;5.20;;;;;;;13.47;90.83;101445.47;5206440;28;20025;-77
2021/06/13 00:34:50;;;;;;;21.85;5.25;;;;;;;13.51;89.86;101454.97;5212443;28;20478;-76
2021/06/13 00:37:20;;;;;;;20.42;5.05;;;;;;;13.52;90.31;101448.81;5216881;28;20033;-77
2021/06/13 00:39:50;;;;;;;18.10;5.40;;;;;;;13.30;90.68;101446.06;5216772;28;20076;-78
2021/06/13 00:42:22;;;;;;;17.48;4.75;;;;;;;13.44;90.69;101440.34;5218927;28;20039;-77
2021/06/13 00:44:52;;;;;;;16.35;4.85;;;;;;;13.40;91.09;101436.09;5215527;28;20036;-78
2021/06/13 00:47:22;;;;;;;18.85;4.72;;;;;;;13.34;90.57;101436.28;5212521;28;20025;-78
2021/06/13 00:49:54;;;;;;;18.67;4.72;;;;;;;13.38;91.30;101440.56;5210753;28;20103;-78
2021/06/13 00:52:25;;;;;;;17.63;5.15;;;;;;;13.34;91.27;101438.91;5209873;28;20032;-77
2021/06/13 00:54:56;;;;;;;18.17;5.30;;;;;;;13.25;92.23;101439.22;5204578;28;20029;-77
2021/06/13 00:57:26;;;;;;;19.73;5.88;;;;;;;13.26;91.91;101446.19;5205761;28;20479;-76
2021/06/13 00:59:56;;;;;;;19.70;5.22;;;;;;;13.04;93.14;101439.94;5209023;28;20021;-76
2021/06/13 01:02:26;;;;;;;16.73;4.85;;;;;;;13.21;92.90;101438.47;5202377;28;20021;-77
2021/06/13 01:04:57;;;;;;;20.88;5.35;;;;;;;13.23;92.08;101441.06;5213212;28;20060;-78
2021/06/13 01:07:42;;;;;;;19.42;5.18;;;;;;;13.19;92.42;101447.28;5215073;28;20021;-77
2021/06/13 01:10:56;;;;;;;13.73;4.60;;;;;;;13.15;91.97;101449.16;5234890;22;20552;-80
2021/06/13 01:13:48;;;;;;;18.58;5.85;;;;;;;12.92;93.90;101450.75;5216248;28;20025;-81
2021/06/13 01:16:46;;;;;;;18.63;5.13;;;;;;;13.02;93.16;101452.22;5218188;28;20025;-80
2021/06/13 01:19:22;;;;;;;19.38;5.05;;;;;;;12.89;94.33;101459.56;5198729;28;20105;-79
2021/06/13 01:21:59;;;;;;;16.20;5.07;;;;;;;12.84;93.71;101463.25;5196492;28;20037;-80
2021/06/13 01:24:45;;;;;;;19.05;5.03;;;;;;;12.76;94.69;101460.00;5196284;28;20029;-82
2021/06/13 01:27:42;;;;;;;21.65;5.28;;;;;;;12.87;93.69;101460.56;5200736;28;20029;-83
2021/06/13 01:30:12;;;;;;;20.33;5.28;;;;;;;12.77;94.64;101463.50;5197295;28;20017;-82
2021/06/13 01:32:43;;;;;;;18.48;5.55;;;;;;;12.85;94.63;101469.38;5199514;28;20037;-79
2021/06/13 01:35:18;;;;;;;20.73;5.10;;;;;;;12.88;94.47;101457.88;5198110;28;20072;-80
2021/06/13 01:37:53;;;;;;;17.98;5.30;;;;;;;12.98;94.51;101470.75;5207886;28;20033;-81
2021/06/13 01:40:29;;;;;;;19.73;4.80;;;;;;;12.72;94.71;101457.53;5199311;28;20029;-82
2021/06/13 01:43:02;;;;;;;22.10;5.90;;;;;;;12.70;95.42;101467.19;5196033;28;20049;-80
2021/06/13 01:45:41;;;;;;;20.77;5.90;;;;;;;12.62;95.92;101472.66;5198889;28;20040;-81
2021/06/13 01:48:13;;;;;;;19.67;5.68;;;;;;;12.66;95.74;101469.06;5196846;28;20022;-82
2021/06/13 01:50:44;;;;;;;21.77;6.18;;;;;;;12.51;96.42;101474.78;5197567;28;20068;-79
2021/06/13 01:53:17;;;;;;;18.65;5.57;;;;;;;12.40;97.20;101471.59;5196052;28;20061;-82
2021/06/13 01:55:49;;;;;;;21.73;6.25;;;;;;;12.46;96.82;101481.88;5196254;28;20116;-79
2021/06/13 01:58:21;;;;;;;20.23;6.30;;;;;;;12.49;96.67;101473.94;5220124;28;20032;-80
2021/06/13 02:00:53;;;;;;;24.40;6.47;;;;;;;12.38;97.07;101478.66;5196633;28;20025;-79
2021/06/13 02:03:23;;;;;;;23.45;5.88;;;;;;;12.22;98.01;101477.34;5191803;28;20026;-81
2021/06/13 02:05:55;;;;;;;19.45;5.68;;;;;;;12.30;98.25;101487.63;5196555;28;20487;-80
2021/06/13 02:08:26;;;;;;;21.02;6.40;;;;;;;12.38;98.34;101483.00;5194191;28;20538;-79
2021/06/13 02:10:57;;;;;;;19.35;5.93;;;;;;;12.24;98.21;101478.16;5196728;28;20022;-79
2021/06/13 02:13:29;;;;;;;19.40;6.30;;;;;;;12.42;97.55;101488.13;5193020;28;20064;-81
2021/06/13 02:16:00;;;;;;;21.55;5.78;;;;;;;12.45;97.64;101485.41;5196071;28;20053;-80
2021/06/13 02:18:32;;;;;;;20.88;6.13;;;;;;;12.26;97.69;101489.47;5196502;28;20105;-80
2021/06/13 02:21:06;;;;;;;19.65;6.38;;;;;;;12.29;98.16;101485.91;5196690;28;20028;-79
2021/06/13 02:23:38;;;;;;;25.73;6.47;;;;;;;12.34;97.78;101486.63;5198281;28;20055;-79
2021/06/13 02:26:10;;;;;;;22.95;6.35;;;;;;;12.19;99.10;101492.28;5194023;28;20030;-82
2021/06/13 02:28:46;;;;;;;19.20;6.47;;;;;;;12.25;98.92;101487.75;5198476;28;20479;-82
2021/06/13 02:31:19;;;;;;;19.25;6.40;;;;;;;12.25;98.26;101498.22;5193603;28;20526;-79
2021/06/13 02:33:50;;;;;;;22.55;7.13;;;;;;;12.15;98.36;101490.66;5193781;28;20033;-78
2021/06/13 02:36:22;;;;;;;22.17;6.57;;;;;;;12.02;99.66;101505.88;5193086;28;20096;-82
2021/06/13 02:38:54;;;;;;;22.40;6.20;;;;;;;12.13;99.20;101493.31;5193674;28;20033;-81
2021/06/13 02:41:25;;;;;;;24.92;6.72;;;;;;;12.22;98.70;101503.56;5197694;28;20097;-80
2021/06/13 02:43:55;;;;;;;23.17;6.13;;;;;;;12.09;99.03;101499.53;5197858;28;20175;-79
2021/06/13 02:46:25;;;;;;;20.88;6.45;;;;;;;12.17;98.99;101505.47;5194702;28;20025;-78
2021/06/13 02:48:56;;;;;;;23.50;6.15;;;;;;;12.16;98.68;101508.09;5195771;28;20438;-81
2021/06/13 02:51:34;;;;;;;19.25;6.65;;;;;;;12.17;98.36;101505.47;5200453;28;20064;-82
2021/06/13 02:54:08;;;;;;;21.98;6.68;;;;;;;12.08;99.08;101516.16;5197188;28;20549;-79
2021/06/13 02:56:41;;;;;;;17.83;6.25;;;;;;;12.23;99.28;101522.75;5197621;28;20482;-82
2021/06/13 02:59:30;;;;;;;18.77;6.35;;;;;;;12.32;98.58;101525.13;5196235;28;20021;-81
2021/06/13 03:02:02;;;;;;;23.75;6.45;;;;;;;12.36;97.78;101526.75;5196389;28;20466;-81
2021/06/13 03:04:34;;;;;;;23.85;6.45;;;;;;;12.22;97.98;101527.16;5192300;28;20033;-82
2021/06/13 03:07:06;;;;;;;15.90;5.88;;;;;;;12.22;98.39;101527.16;5191939;28;20179;-82
2021/06/13 03:09:36;;;;;;;22.17;6.28;;;;;;;12.34;97.92;101529.44;5190599;28;20028;-81
2021/06/13 03:12:08;;;;;;;25.73;6.60;;;;;;;12.23;97.93;101528.00;5193162;28;20045;-80
2021/06/13 03:14:41;;;;;;;15.93;6.18;;;;;;;12.17;98.43;101536.91;5190969;28;20030;-81
2021/06/13 03:17:12;;;;;;;19.80;5.88;;;;;;;12.14;98.72;101534.34;5200784;28;20025;-82
2021/06/13 03:19:43;;;;;;;23.17;6.75;;;;;;;12.12;98.06;101532.69;5196414;28;20022;-80
2021/06/13 03:22:15;;;;;;;23.05;6.68;;;;;;;11.93;99.41;101544.53;5191178;28;20079;-82
2021/06/13 03:24:48;;;;;;;27.25;6.82;;;;;;;11.91;99.26;101539.34;5197076;28;20188;-81
2021/06/13 03:27:19;;;;;;;19.48;6.40;;;;;;;12.01;99.53;101547.81;5199618;28;20021;-79
2021/06/13 03:29:50;;;;;;;17.27;6.45;;;;;;;12.09;99.31;101546.72;5195482;28;20030;-80
2021/06/13 03:32:23;;;;;;;20.83;6.70;;;;;;;12.10;99.10;101548.44;5196091;28;20036;-81
2021/06/13 03:34:54;;;;;;;25.15;6.75;;;;;;;12.14;98.23;101557.94;5197323;28;20033;-81
2021/06/13 03:37:24;;;;;;;23.40;7.00;;;;;;;11.90;100.00;101547.22;5198241;28;20565;-81
2021/06/13 03:39:56;;;;;;;22.40;6.60;;;;;;;12.09;99.23;101548.50;5207032;28;20506;-81
2021/06/13 03:42:27;;;;;;;18.10;6.70;;;;;;;12.01;99.36;101553.94;5196406;28;20033;-82
2021/06/13 03:44:58;;;;;;;18.75;6.15;;;;;;;12.03;99.70;101562.59;5196895;28;20033;-80
2021/06/13 03:47:32;;;;;;;16.52;6.43;;;;;;;12.05;100.00;101560.81;5194113;28;20411;-81
2021/06/13 03:50:03;;;;;;;17.48;6.45;;;;;;;11.99;100.00;101558.31;5197870;28;20026;-82
2021/06/13 03:52:34;;;;;;;20.65;6.70;;;;;;;12.10;99.53;101566.78;5202461;28;20033;-81
2021/06/13 03:55:04;;;;;;;22.90;6.78;;;;;;;12.25;98.99;101566.38;5203728;28;20067;-81
2021/06/13 03:57:35;;;;;;;17.88;6.43;;;;;;;12.14;99.08;101573.66;5207419;28;20064;-82
2021/06/13 04:00:08;;;;;;;19.33;6.78;;;;;;;12.34;98.94;101562.66;5201683;28;20079;-82
2021/06/13 04:02:42;;;;;;;18.88;6.68;;;;;;;12.22;98.56;101563.84;5208822;28;20033;-82
2021/06/13 04:05:18;;;;;;;19.33;5.90;;;;;;;12.20;98.73;101576.13;5203839;28;20021;-82
2021/06/13 04:07:49;;;;;;;24.63;6.40;;;;;;;12.44;97.89;101575.47;5199887;28;20131;-82
2021/06/13 04:10:19;;;;;;;18.15;6.75;;;;;;;12.38;97.72;101578.25;5198030;28;20111;-83
2021/06/13 04:12:51;;;;;;;22.52;6.55;;;;;;;12.40;98.35;101589.56;5201231;28;20034;-79
2021/06/13 04:15:22;;;;;;;16.77;5.32;;;;;;;12.48;98.28;101591.97;5200622;28;20025;-80
2021/06/13 04:17:53;;;;;;;19.08;6.22;;;;;;;12.47;97.42;101583.25;5201727;28;20030;-82
2021/06/13 04:20:25;;;;;;;17.90;6.38;;;;;;;12.46;97.28;101588.53;5210165;28;20112;-81
2021/06/13 04:22:56;;;;;;;22.23;6.35;;;;;;;12.51;98.05;101589.28;5201222;28;20029;-79
2021/06/13 04:25:26;;;;;;;24.52;6.35;;;;;;;12.51;97.30;101584.03;5202597;28;20427;-82
2021/06/13 04:27:57;;;;;;;15.75;5.63;;;;;;;12.33;99.31;101598.47;5205129;28;20025;-80
2021/06/13 04:30:28;;;;;;;19.58;6.63;;;;;;;12.43;98.06;101594.72;5199985;28;20020;-79
2021/06/13 04:32:58;;;;;;;18.52;5.75;;;;;;;12.66;97.05;101592.31;5198776;28;20037;-80
2021/06/13 04:35:28;;;;;;;19.90;5.85;;;;;;;12.49;99.14;101589.31;5195287;28;20456;-79
2021/06/13 04:37:58;;;;;;;20.23;5.75;;;;;;;12.80;96.68;101584.09;5203517;28;20075;-79
2021/06/13 04:40:29;;;;;;;18.35;5.97;;;;;;;12.57;98.86;101589.97;5202262;28;20025;-80
2021/06/13 04:42:59;;;;;;;20.95;5.63;;;;;;;12.76;96.30;101596.41;5200720;28;20028;-80
2021/06/13 04:45:29;;;;;;;16.65;5.65;;;;;;;12.97;95.50;101589.75;5204770;28;20034;-79
2021/06/13 04:48:00;;;;;;;19.15;5.90;;;;;;;12.74;95.19;101598.22;5193273;28;20029;-79
2021/06/13 04:50:31;;;;;;;18.45;5.25;;;;;;;12.94;95.22;101593.31;5195145;28;20029;-80
2021/06/13 04:53:02;;;;;;;24.13;5.70;;;;;;;13.00;94.25;101601.00;5197275;28;20029;-79
2021/06/13 04:55:45;;;;;;;15.00;4.97;;;;;;;13.10;94.66;101599.81;5198281;28;20576;-80
2021/06/13 04:58:25;;;;;;;18.83;5.85;;;;;;;13.07;94.44;101598.13;5179581;28;20114;-80
2021/06/13 05:00:56;;;;;;;17.73;5.00;;;;;;;13.12;95.10;101603.25;5195592;28;20491;-80
2021/06/13 05:03:26;;;;;;;17.65;5.22;;;;;;;13.29;92.51;101603.63;5195487;28;20056;-80
2021/06/13 05:05:57;;;;;;;19.50;6.00;;;;;;;13.55;92.03;101606.31;5195096;28;20022;-79
2021/06/13 05:08:28;;;;;;;17.80;5.65;;;;;;;13.44;92.12;101608.41;5196812;28;20033;-79
2021/06/13 05:10:59;;;;;;;18.70;5.57;;;;;;;14.69;87.66;101607.69;5195123;28;20476;-79
2021/06/13 05:13:29;;;;;;;18.60;4.63;;;;;;;14.69;85.57;101607.69;5199146;28;20041;-80
2021/06/13 05:15:59;;;;;;;20.38;5.70;;;;;;;14.46;85.88;101612.91;5198186;28;20037;-79
2021/06/13 05:18:30;;;;;;;18.95;5.05;;;;;;;14.81;85.54;101616.03;5196633;28;20045;-79
2021/06/13 05:21:00;;;;;;;20.10;5.57;;;;;;;16.75;78.45;101607.19;5199235;28;20017;-81
2021/06/13 05:23:31;;;;;;;19.52;5.00;;;;;;;17.53;74.68;101616.78;5198017;28;20036;-79
2021/06/13 05:26:02;;;;;;;17.55;4.70;;;;;;;18.82;69.25;101611.94;5196236;28;20024;-80
2021/06/13 05:28:32;;;;;;;13.10;4.55;;;;;;;16.91;74.79;101609.09;5201313;28;20060;-79
2021/06/13 05:31:02;;;;;;;13.02;4.90;;;;;;;15.77;78.65;101617.56;5205746;28;20022;-79
2021/06/13 05:33:33;;;;;;;16.85;5.10;;;;;;;15.54;80.77;101623.75;5192589;28;20030;-79
2021/06/13 05:36:03;;;;;;;17.20;4.95;;;;;;;15.20;81.19;101631.19;5197370;28;20025;-79
2021/06/13 05:38:34;;;;;;;13.32;4.63;;;;;;;15.35;81.36;101628.00;5199882;28;20030;-79
2021/06/13 05:41:04;;;;;;;15.68;4.85;;;;;;;17.04;75.49;101622.59;5200552;28;20025;-80
2021/06/13 05:43:34;;;;;;;14.88;5.18;;;;;;;16.92;75.24;101623.13;5198177;28;20414;-79
2021/06/13 05:46:05;;;;;;;16.95;5.15;;;;;;;16.75;76.54;101636.22;5193371;28;20045;-80
2021/06/13 05:48:35;;;;;;;16.33;5.15;;;;;;;16.26;77.71;101636.63;5196069;28;20061;-80
2021/06/13 05:51:06;;;;;;;13.75;4.95;;;;;;;16.77;76.32;101629.97;5194436;28;20022;-80
2021/06/13 05:53:36;;;;;;;11.45;4.50;;;;;;;16.30;77.83;101638.19;5195698;28;20034;-81
2021/06/13 05:56:06;;;;;;;18.90;4.70;;;;;;;15.95;79.73;101651.97;5198163;28;20032;-79
2021/06/13 05:58:37;;;;;;;17.33;4.47;;;;;;;15.84;81.18;101655.97;5200459;28;20291;-79
2021/06/13 06:01:07;;;;;;;20.70;4.97;;;;;;;15.84;80.40;101643.63;5194907;28;20547;-79
2021/06/13 06:03:37;;;;;;;17.45;4.60;;;;;;;15.62;80.00;101658.59;5203449;28;20420;-78
2021/06/13 06:06:07;;;;;;;14.93;4.65;;;;;;;15.47;80.77;101655.66;5193746;28;20123;-78
2021/06/13 06:08:38;;;;;;;19.87;4.93;;;;;;;15.67;81.23;101659.25;5196969;28;20187;-79
2021/06/13 06:11:09;;;;;;;17.88;4.32;;;;;;;16.03;79.87;101660.41;5198265;28;20284;-79
2021/06/13 06:13:39;;;;;;;20.17;5.03;;;;;;;15.62;79.51;101655.94;5194761;28;20109;-78
2021/06/13 06:16:09;;;;;;;17.92;4.97;;;;;;;15.46;81.13;101664.47;5194266;28;20056;-79
2021/06/13 06:18:40;;;;;;;13.38;4.05;;;;;;;15.19;81.61;101661.09;5194385;28;20033;-78
2021/06/13 06:21:10;;;;;;;16.50;4.88;;;;;;;15.10;81.72;101669.34;5196252;28;20117;-78
2021/06/13 06:23:40;;;;;;;14.85;4.25;;;;;;;15.25;82.79;101657.38;5194192;28;20021;-78
2021/06/13 06:26:10;;;;;;;19.00;4.85;;;;;;;15.41;81.69;101664.69;5190946;28;20017;-78
2021/06/13 06:28:41;;;;;;;12.97;4.40;;;;;;;15.47;82.18;101672.34;5190296;28;20026;-79
2021/06/13 06:31:11;;;;;;;15.05;4.20;;;;;;;15.29;81.53;101674.81;5192848;28;20292;-79
2021/06/13 06:33:41;;;;;;;14.88;4.40;;;;;;;15.39;81.81;101676.19;5189547;28;20045;-79
2021/06/13 06:36:11;;;;;;;16.77;4.22;;;;;;;15.26;81.55;101682.78;5194757;28;20030;-79
2021/06/13 06:38:42;;;;;;;16.75;4.78;;;;;;;15.53;81.65;101677.38;5193849;28;20029;-79
2021/06/13 06:41:12;;;;;;;14.02;4.22;;;;;;;15.67;80.97;101672.44;5193530;28;20653;-79
2021/06/13 06:43:42;;;;;;;14.82;3.88;;;;;;;15.89;80.74;101670.66;5195336;28;20079;-79
2021/06/13 06:46:13;;;;;;;13.95;4.10;;;;;;;15.92;79.51;101678.47;5191839;28;20503;-80
2021/06/13 06:48:43;;;;;;;17.50;4.57;;;;;;;16.12;79.37;101667.97;5195635;28;20059;-79
2021/06/13 06:51:14;;;;;;;18.17;4.47;;;;;;;16.20;78.85;101679.06;5194116;28;20100;-79
2021/06/13 06:53:44;;;;;;;15.60;4.32;;;;;;;16.10;77.98;101677.72;5195457;28;20029;-79
2021/06/13 06:56:14;;;;;;;14.98;3.88;;;;;;;16.35;78.14;101672.34;5188994;28;20026;-79
2021/06/13 06:58:45;;;;;;;13.30;4.05;;;;;;;16.38;76.72;101677.50;5195079;28;20108;-78
2021/06/13 07:01:15;;;;;;;12.50;3.92;;;;;;;16.63;76.01;101679.03;5193164;28;20040;-79
2021/06/13 07:03:45;;;;;;;14.10;4.20;;;;;;;16.46;76.98;101676.25;5188574;28;20502;-80
2021/06/13 07:06:16;;;;;;;14.03;3.83;;;;;;;16.34;78.65;101670.56;5194484;28;20026;-80
2021/06/13 07:08:46;;;;;;;18.20;4.32;;;;;;;16.50;75.77;101674.31;5203018;28;20271;-80
2021/06/13 07:11:16;;;;;;;15.05;4.20;;;;;;;16.42;76.05;101677.28;5206604;22;20021;-80
2021/06/13 07:13:47;;;;;;;13.05;3.72;;;;;;;16.61;75.62;101672.97;5211079;28;20051;-80
2021/06/13 07:16:17;;;;;;;14.27;3.90;;;;;;;16.83;75.20;101687.78;5210834;28;20430;-80
2021/06/13 07:18:49;;;;;;;13.05;3.60;;;;;;;16.85;74.48;101675.41;5216617;28;20025;-80
2021/06/13 07:21:19;;;;;;;18.05;4.20;;;;;;;16.83;74.15;101694.88;5205002;28;20317;-80
2021/06/13 07:23:49;;;;;;;14.15;3.65;;;;;;;17.10;74.52;101699.78;5197842;28;20041;-81
2021/06/13 07:26:19;;;;;;;15.00;4.05;;;;;;;16.98;74.38;101702.13;5184346;28;20033;-81
2021/06/13 07:28:50;;;;;;;12.77;3.70;;;;;;;16.73;75.25;101706.72;5193542;28;20430;-80
2021/06/13 07:31:20;;;;;;;15.25;4.03;;;;;;;16.69;74.42;101715.72;5193956;28;20032;-81
2021/06/13 07:33:50;;;;;;;12.38;3.70;;;;;;;16.55;75.32;101712.78;5191184;28;20033;-81
2021/06/13 07:36:21;;;;;;;12.55;3.47;;;;;;;16.66;74.62;101710.56;5194653;28;20058;-79
2021/06/13 07:38:51;;;;;;;15.17;3.83;;;;;;;16.31;73.06;101712.91;5200503;28;20033;-80
2021/06/13 07:41:21;;;;;;;16.25;3.70;;;;;;;16.22;73.99;101721.22;5192562;28;20269;-80
2021/06/13 07:43:51;;;;;;;13.80;3.60;;;;;;;16.46;73.46;101718.47;5190706;28;20083;-81
2021/06/13 07:46:22;;;;;;;13.20;3.58;;;;;;;16.90;73.02;101720.06;5189826;28;20112;-80
2021/06/13 07:48:53;;;;;;;12.68;3.65;;;;;;;16.95;73.25;101729.53;5191742;28;20401;-80
2021/06/13 07:51:24;;;;;;;11.55;3.45;;;;;;;17.22;72.59;101719.53;5188627;28;20801;-80
2021/06/13 07:53:54;;;;;;;13.80;3.55;;;;;;;17.24;72.24;101725.59;5193022;28;20030;-81
2021/06/13 07:56:25;;;;;;;11.23;3.72;;;;;;;17.38;71.61;101718.81;5188714;28;20091;-80
2021/06/13 07:58:55;;;;;;;11.77;3.35;;;;;;;17.75;72.39;101723.25;5192297;28;20030;-81
2021/06/13 08:01:25;;;;;;;15.10;4.20;;;;;;;17.74;70.86;101732.13;5192748;28;20022;-81
2021/06/13 08:03:56;;;;;;;11.48;3.35;;;;;;;17.31;72.32;101729.69;5192441;28;20032;-80
2021/06/13 08:06:26;;;;;;;13.77;3.65;;;;;;;17.28;71.78;101733.31;5192085;28;20088;-80
2021/06/13 08:08:56;;;;;;;13.05;3.70;;;;;;;17.49;72.32;101731.56;5192406;28;20026;-80
2021/06/13 08:11:29;;;;;;;15.68;3.70;;;;;;;17.11;71.97;101729.72;5192369;28;20411;-80
2021/06/13 08:14:00;;;;;;;15.77;3.95;;;;;;;16.78;71.95;101723.25;5186831;28;20499;-80
2021/06/13 08:16:30;;;;;;;13.00;3.72;;;;;;;16.93;71.40;101735.78;5195897;28;20147;-80
2021/06/13 08:19:01;;;;;;;12.68;3.47;;;;;;;17.04;71.35;101725.63;5194614;28;20156;-80
2021/06/13 08:21:34;;;;;;;16.92;4.05;;;;;;;17.04;72.80;101741.47;5197861;28;20112;-80
2021/06/13 08:24:05;;;;;;;11.80;3.70;;;;;;;17.34;70.46;101732.22;5193583;28;20167;-80
2021/06/13 08:26:36;;;;;;;13.48;3.35;;;;;;;17.54;69.35;101725.13;5191287;28;20025;-81
2021/06/13 08:29:07;;;;;;;9.80;3.40;;;;;;;18.06;68.34;101724.41;5190621;28;20025;-80
2021/06/13 08:31:37;;;;;;;14.05;3.55;;;;;;;18.03;68.23;101721.88;5194289;28;20045;-80
2021/06/13 08:34:07;;;;;;;11.60;3.45;;;;;;;18.16;68.30;101720.38;5187188;28;20043;-81
2021/06/13 08:36:38;;;;;;;10.65;3.33;;;;;;;18.43;68.62;101723.47;5188218;28;20045;-81
2021/06/13 08:39:09;;;;;;;11.13;3.20;;;;;;;18.16;68.70;101730.94;5184994;28;21547;-81
2021/06/13 08:41:39;;;;;;;12.93;3.47;;;;;;;18.60;65.38;101726.16;5193205;28;20125;-81
2021/06/13 08:44:10;;;;;;;14.65;3.70;;;;;;;18.35;66.31;101737.09;5189087;28;20124;-81
2021/06/13 08:46:42;;;;;;;12.68;3.25;;;;;;;18.24;67.23;101739.41;5186150;28;20030;-81
2021/06/13 08:49:12;;;;;;;12.93;3.40;;;;;;;18.30;68.05;101733.81;5183388;28;20122;-80
2021/06/13 08:51:45;;;;;;;11.25;3.38;;;;;;;18.33;67.32;101738.97;5194488;28;20083;-80
2021/06/13 08:54:15;;;;;;;10.27;3.55;;;;;;;19.16;65.55;101749.72;5193111;28;20041;-80
2021/06/13 08:56:46;;;;;;;9.43;3.30;;;;;;;19.10;65.73;101744.69;5185252;28;20534;-80
2021/06/13 08:59:16;;;;;;;11.70;3.45;;;;;;;18.65;66.61;101745.34;5185221;28;20034;-80
2021/06/13 09:01:46;;;;;;;11.25;3.42;;;;;;;18.30;66.75;101754.13;5196477;28;20127;-81
2021/06/13 09:04:17;;;;;;;12.35;3.50;;;;;;;18.05;67.31;101764.16;5189407;28;20038;-80
2021/06/13 09:06:50;;;;;;;10.88;3.28;;;;;;;18.04;66.10;101758.00;5194668;28;20037;-81
2021/06/13 09:09:26;;;;;;;11.25;3.65;;;;;;;19.16;64.09;101747.06;5193703;28;20488;-80
2021/06/13 09:12:05;;;;;;;10.35;3.30;;;;;;;19.26;63.85;101732.38;5187669;28;20057;-80
2021/06/13 09:14:41;;;;;;;9.55;2.97;;;;;;;19.70;61.88;101741.47;5190199;28;20103;-80
2021/06/13 09:17:16;;;;;;;11.70;3.75;;;;;;;20.25;61.09;101734.84;5186656;28;20030;-81
2021/06/13 09:20:23;;;;;;;10.02;3.00;;;;;;;19.98;60.37;101748.78;5191642;28;20037;-80
2021/06/13 09:23:08;;;;;;;9.57;3.17;;;;;;;20.46;58.73;101735.41;5190492;28;20045;-81
2021/06/13 09:25:41;;;;;;;9.73;3.25;;;;;;;20.67;59.69;101727.03;5187707;28;20044;-80
2021/06/13 09:28:17;;;;;;;9.93;3.38;;;;;;;21.69;58.99;101734.03;5186924;28;20030;-81
2021/06/13 09:30:52;;;;;;;;;;;;;;;20.88;58.03;101731.13;5184108;28;20044;-81
2021/06/13 09:33:23;;;;;;;14.88;3.22;;;;;;;20.20;59.20;101736.03;5185841;28;19921;-81
2021/06/13 09:35:56;;;;;;;6.90;2.80;;;;;;;19.47;60.57;101738.34;5185805;28;20483;-81
2021/06/13 09:38:29;;;;;;;11.85;3.42;;;;;;;19.61;61.87;101741.97;5189535;28;20088;-80
2021/06/13 09:41:02;;;;;;;11.20;3.35;;;;;;;19.52;61.44;101742.47;5191080;28;20489;-80
2021/06/13 09:43:36;;;;;;;7.60;3.10;;;;;;;19.22;60.92;101743.22;5189291;28;20032;-80
2021/06/13 09:46:08;;;;;;;11.05;3.15;;;;;;;19.13;60.93;101754.28;5188058;28;20041;-80
2021/06/13 09:48:45;;;;;;;9.82;3.45;;;;;;;19.24;60.69;101752.81;5186807;28;20089;-80
2021/06/13 09:51:20;;;;;;;11.75;3.42;;;;;;;19.17;60.74;101746.13;5189583;28;20052;-80
2021/06/13 09:53:55;;;;;;;9.73;3.25;;;;;;;19.15;61.09;101752.41;5189457;28;20125;-80
2021/06/13 09:56:31;;;;;;;11.35;3.25;;;;;;;19.22;61.32;101748.50;5184724;28;20030;-80
2021/06/13 09:59:09;;;;;;;8.07;2.90;;;;;;;19.37;60.76;101753.88;5191321;28;20507;-80
2021/06/13 10:01:40;;;;;;;9.75;3.22;;;;;;;20.35;59.65;101751.97;5186149;28;20053;-80
2021/06/13 10:04:24;;;;;;;12.85;2.88;;;;;;;20.04;59.73;101746.66;5178026;28;20034;-80
2021/06/13 10:06:59;;;;;;;11.80;3.40;;;;;;;19.76;60.04;101749.09;5184123;28;20164;-80
2021/06/13 10:09:40;;;;;;;8.83;3.10;;;;;;;19.82;60.37;101751.41;5188908;28;20030;-81
2021/06/13 10:12:15;;;;;;;12.48;3.55;;;;;;;19.85;61.01;101755.69;5185728;28;20037;-81
2021/06/13 10:14:48;;;;;;;12.27;3.50;;;;;;;19.76;61.40;101767.66;5189434;28;20031;-80
2021/06/13 10:17:30;;;;;;;10.18;3.25;;;;;;;19.53;62.53;101760.09;5184294;28;20503;-81
2021/06/13 10:20:00;;;;;;;9.18;3.50;;;;;;;19.61;61.50;101752.56;5184722;28;20287;-80
2021/06/13 10:22:31;;;;;;;10.68;3.28;;;;;;;20.26;60.75;101756.94;5190580;28;20121;-80
2021/06/13 10:25:01;;;;;;;11.32;3.50;;;;;;;19.95;60.94;101756.91;5194781;28;20021;-80
2021/06/13 10:27:32;;;;;;;11.63;3.20;;;;;;;19.85;61.52;101763.66;5196472;28;20041;-80
2021/06/13 10:30:03;;;;;;;9.00;3.58;;;;;;;20.01;60.47;101752.13;5191437;28;20018;-80
2021/06/13 10:32:33;;;;;;;11.90;3.28;;;;;;;19.72;61.41;101755.50;5177021;28;20048;-79
2021/06/13 10:35:06;;;;;;;11.85;3.30;;;;;;;19.29;60.30;101758.72;5193364;28;20021;-80
2021/06/13 10:37:36;;;;;;;9.02;3.22;;;;;;;19.37;61.45;101759.19;5188909;28;20048;-80
2021/06/13 10:40:07;;;;;;;13.02;3.42;;;;;;;19.52;61.28;101763.69;5184134;28;20022;-80
2021/06/13 10:42:38;;;;;;;12.27;3.33;;;;;;;19.42;62.09;101757.16;5187037;28;20067;-80
2021/06/13 10:45:09;;;;;;;11.85;3.92;;;;;;;19.67;61.89;101756.69;5190381;28;20025;-81
2021/06/13 10:47:39;;;;;;;9.77;3.17;;;;;;;19.99;61.80;101758.44;5186275;28;20054;-81
2021/06/13 10:50:11;;;;;;;10.73;3.40;;;;;;;20.73;59.78;101751.44;5188813;28;20388;-80
2021/06/13 10:52:59;;;;;;;9.50;3.38;;;;;;;21.00;59.66;101746.31;5188902;28;20049;-80
2021/06/13 10:55:51;;;;;;;12.55;3.40;;;;;;;20.88;58.16;101745.25;5188924;28;20038;-80
2021/06/13 10:58:44;;;;;;;11.30;3.47;;;;;;;20.59;60.09;101750.53;5189011;28;20057;-80
2021/06/13 11:01:27;;;;;;;10.13;2.95;;;;;;;20.65;58.80;101759.97;5187618;28;20030;-81
2021/06/13 11:04:03;;;;;;;12.30;3.20;;;;;;;20.42;58.63;101755.09;5186909;28;20046;-81
2021/06/13 11:06:36;;;;;;;9.82;3.35;;;;;;;20.43;59.54;101757.69;5187367;28;20057;-80
2021/06/13 11:09:14;;;;;;;11.00;3.03;;;;;;;20.61;59.51;101753.97;5182072;28;20037;-80
2021/06/13 11:11:44;;;;;;;8.10;2.72;;;;;;;20.63;59.81;101753.88;5185831;28;20042;-81
2021/06/13 11:14:26;;;;;;;7.10;3.10;;;;;;;20.57;58.81;101757.75;5194253;28;20041;-80
2021/06/13 11:16:59;;;;;;;9.13;2.83;;;;;;;20.52;57.83;101753.63;5185811;28;20026;-80
2021/06/13 11:19:31;;;;;;;9.02;3.33;;;;;;;20.54;57.69;101749.97;5183969;28;20044;-80
2021/06/13 11:22:17;;;;;;;8.40;2.65;;;;;;;20.97;56.01;101749.16;5180349;28;20045;-81
2021/06/13 11:24:50;;;;;;;9.23;2.88;;;;;;;20.98;55.86;101753.53;5188336;28;20053;-81
2021/06/13 11:27:20;;;;;;;7.70;2.72;;;;;;;21.21;56.95;101751.22;5183398;28;20045;-80
2021/06/13 11:29:57;;;;;;;7.55;2.90;;;;;;;21.45;55.88;101747.06;5185578;28;20041;-80
2021/06/13 11:32:54;;;;;;;9.93;3.17;;;;;;;21.01;55.21;101756.00;5179689;28;20045;-80
2021/06/13 11:35:30;;;;;;;10.15;2.90;;;;;;;21.01;55.85;101750.69;5190090;28;20026;-79
2021/06/13 11:38:09;;;;;;;9.27;2.90;;;;;;;20.86;57.71;101746.31;5191522;28;20082;-81
2021/06/13 11:40:48;;;;;;;11.00;3.30;;;;;;;20.81;57.31;101746.53;5189190;28;20041;-81
2021/06/13 11:43:22;;;;;;;9.25;2.90;;;;;;;21.31;56.70;101739.06;5188826;28;20522;-81
2021/06/13 11:45:54;;;;;;;7.28;3.00;;;;;;;21.53;56.36;101738.59;5185688;28;20823;-80